createdAt,value
2023-02-18T00:00:33.366Z,14.29
2023-02-18T00:03:01.011Z,14.30
2023-02-18T00:05:31.233Z,14.30
2023-02-18T00:07:58.888Z,14.30
2023-02-18T00:10:26.513Z,14.30
2023-02-18T00:12:54.129Z,14.30
2023-02-18T00:15:21.750Z,14.29
2023-02-18T00:17:49.364Z,14.31
2023-02-18T00:20:17.184Z,14.30
2023-02-18T00:22:46.159Z,14.31
2023-02-18T00:25:13.797Z,14.31
2023-02-18T00:27:41.377Z,14.32
2023-02-18T00:30:09.816Z,14.31
2023-02-18T00:32:37.615Z,14.32
2023-02-18T00:35:05.563Z,14.33
2023-02-18T00:37:35.319Z,14.31
2023-02-18T00:40:04.858Z,14.31
2023-02-18T00:42:32.445Z,14.32
2023-02-18T00:45:00.043Z,14.32
2023-02-18T00:47:27.699Z,14.31
2023-02-18T00:49:55.324Z,14.30
2023-02-18T00:52:22.938Z,14.30
2023-02-18T00:54:50.552Z,14.31
2023-02-18T00:57:19.544Z,14.30
2023-02-18T00:59:47.642Z,14.30
2023-02-18T01:02:15.237Z,14.29
2023-02-18T01:04:42.956Z,14.29
2023-02-18T01:07:11.256Z,14.30
2023-02-18T01:09:38.949Z,14.30
2023-02-18T01:12:07.127Z,14.28
2023-02-18T01:14:36.492Z,14.28
2023-02-18T01:17:04.096Z,14.27
2023-02-18T01:19:31.713Z,14.28
2023-02-18T01:21:59.285Z,14.29
2023-02-18T01:24:27.094Z,14.29
2023-02-18T01:26:54.718Z,14.27
2023-02-18T01:29:22.308Z,14.28
2023-02-18T01:31:51.861Z,14.28
2023-02-18T01:34:19.522Z,14.27
2023-02-18T01:36:47.178Z,14.27
2023-02-18T01:39:14.844Z,14.27
2023-02-18T01:41:42.399Z,14.28
2023-02-18T01:44:18.633Z,14.28
2023-02-18T01:46:46.508Z,14.27
2023-02-18T01:49:18.935Z,14.27
2023-02-18T01:51:51.243Z,14.28
2023-02-18T01:54:22.586Z,14.29
2023-02-18T01:56:54.189Z,14.28
2023-02-18T01:59:25.113Z,14.28
2023-02-18T02:01:54.046Z,14.29
2023-02-18T02:04:23.392Z,14.29
2023-02-18T02:06:51.392Z,14.30
2023-02-18T02:09:22.811Z,14.29
2023-02-18T02:12:22.057Z,14.29
2023-02-18T02:15:04.202Z,14.30
2023-02-18T02:17:39.110Z,14.30
2023-02-18T02:20:29.030Z,14.30
2023-02-18T02:23:27.931Z,14.30
2023-02-18T02:26:20.419Z,14.30
2023-02-18T02:29:10.106Z,14.30
2023-02-18T02:32:03.261Z,14.30
2023-02-18T02:34:42.537Z,14.30
2023-02-18T02:37:15.598Z,14.30
2023-02-18T02:40:00.043Z,14.30
2023-02-18T02:42:36.976Z,14.29
2023-02-18T02:45:11.233Z,14.30
2023-02-18T02:47:47.097Z,14.28
2023-02-18T02:50:19.506Z,14.28
2023-02-18T02:52:53.301Z,14.27
2023-02-18T02:55:21.341Z,14.28
2023-02-18T02:57:51.285Z,14.27
2023-02-18T03:00:22.612Z,14.26
2023-02-18T03:03:10.597Z,14.27
2023-02-18T03:05:56.519Z,14.27
2023-02-18T03:08:37.975Z,14.27
2023-02-18T03:11:08.368Z,14.26
2023-02-18T03:13:51.028Z,14.27
2023-02-18T03:16:28.431Z,14.28
2023-02-18T03:19:04.156Z,14.27
2023-02-18T03:21:36.751Z,14.28
2023-02-18T03:24:09.852Z,14.27
2023-02-18T03:26:43.631Z,14.27
2023-02-18T03:29:13.014Z,14.28
2023-02-18T03:31:44.847Z,14.29
2023-02-18T03:34:17.066Z,14.29
2023-02-18T03:36:46.580Z,14.30
2023-02-18T03:39:17.238Z,14.30
2023-02-18T03:41:45.513Z,14.27
2023-02-18T03:44:13.884Z,14.30
2023-02-18T03:46:44.201Z,14.29
2023-02-18T03:49:12.318Z,14.30
2023-02-18T03:51:40.255Z,14.30
2023-02-18T03:54:09.539Z,14.28
2023-02-18T03:56:37.736Z,14.31
2023-02-18T03:59:05.538Z,14.29
2023-02-18T04:01:33.250Z,14.29
2023-02-18T04:04:00.936Z,14.31
2023-02-18T04:06:28.572Z,14.29
2023-02-18T04:08:56.414Z,14.31
2023-02-18T04:11:25.375Z,14.30
2023-02-18T04:13:53.083Z,14.30
2023-02-18T04:16:20.775Z,14.30
2023-02-18T04:18:48.438Z,14.30
2023-02-18T04:21:16.026Z,14.30
2023-02-18T04:23:43.645Z,14.28
2023-02-18T04:26:11.460Z,14.29
2023-02-18T04:28:40.578Z,14.29
2023-02-18T04:31:08.400Z,14.30
2023-02-18T04:33:36.059Z,14.30
2023-02-18T04:36:03.878Z,14.29
2023-02-18T04:38:31.490Z,14.30
2023-02-18T04:40:59.132Z,14.29
2023-02-18T04:43:26.716Z,14.30
2023-02-18T04:45:55.694Z,14.29
2023-02-18T04:48:23.323Z,14.28
2023-02-18T04:50:51.122Z,14.28
2023-02-18T04:53:18.688Z,14.27
2023-02-18T04:55:51.582Z,14.30
2023-02-18T04:58:19.361Z,14.28
2023-02-18T05:00:47.382Z,14.29
2023-02-18T05:03:16.339Z,14.28
2023-02-18T05:05:44.156Z,14.28
2023-02-18T05:08:11.732Z,14.29
2023-02-18T05:10:40.094Z,14.30
2023-02-18T05:13:07.930Z,14.31
2023-02-18T05:15:35.562Z,14.30
2023-02-18T05:18:03.166Z,14.32
2023-02-18T05:20:32.280Z,14.31
2023-02-18T05:22:59.917Z,14.33
2023-02-18T05:25:27.535Z,14.33
2023-02-18T05:27:55.141Z,14.34
2023-02-18T05:30:22.803Z,14.34
2023-02-18T05:32:50.480Z,14.36
2023-02-18T05:35:18.343Z,14.34
2023-02-18T05:37:47.617Z,14.36
2023-02-18T05:40:15.270Z,14.36
2023-02-18T05:42:42.897Z,14.36
2023-02-18T05:45:10.943Z,14.36
2023-02-18T05:47:38.581Z,14.37
2023-02-18T05:50:07.677Z,14.37
2023-02-18T05:52:35.570Z,14.38
2023-02-18T05:55:04.778Z,14.37
2023-02-18T05:57:32.377Z,14.37
2023-02-18T06:00:00.344Z,14.38
2023-02-18T06:02:28.088Z,14.37
2023-02-18T06:04:55.718Z,14.38
2023-02-18T06:07:23.363Z,14.36
2023-02-18T06:09:50.990Z,14.36
2023-02-18T06:12:19.943Z,14.36
2023-02-18T06:14:47.700Z,14.37
2023-02-18T06:17:18.624Z,14.37
2023-02-18T06:19:46.741Z,14.37
2023-02-18T06:22:14.310Z,14.36
2023-02-18T06:24:42.277Z,14.38
2023-02-18T06:27:09.855Z,14.36
2023-02-18T06:29:38.841Z,14.37
2023-02-18T06:32:06.773Z,14.37
2023-02-18T06:34:34.504Z,14.37
2023-02-18T06:37:02.109Z,14.36
2023-02-18T06:39:30.218Z,14.36
2023-02-18T06:41:58.380Z,14.36
2023-02-18T06:44:26.030Z,14.36
2023-02-18T06:46:55.029Z,14.35
2023-02-18T06:49:22.699Z,14.35
2023-02-18T06:51:50.295Z,14.37
2023-02-18T06:54:17.908Z,14.36
2023-02-18T06:56:45.563Z,14.38
2023-02-18T06:59:13.813Z,14.37
2023-02-18T07:01:41.436Z,14.38
2023-02-18T07:04:10.394Z,14.38
2023-02-18T07:06:38.048Z,14.37
2023-02-18T07:09:06.087Z,14.37
2023-02-18T07:11:33.803Z,14.38
2023-02-18T07:14:01.527Z,14.38
2023-02-18T07:16:29.161Z,14.38
2023-02-18T07:18:56.873Z,14.39
2023-02-18T07:21:25.872Z,14.39
2023-02-18T07:23:53.464Z,14.40
2023-02-18T07:26:21.085Z,14.40
2023-02-18T07:28:48.702Z,14.41
2023-02-18T07:31:17.614Z,14.41
2023-02-18T07:33:45.409Z,14.41
2023-02-18T07:36:13.205Z,14.42
2023-02-18T07:38:43.042Z,14.42
2023-02-18T07:41:18.702Z,14.43
2023-02-18T07:43:46.378Z,14.42
2023-02-18T07:46:14.001Z,14.42
2023-02-18T07:48:41.651Z,14.42
2023-02-18T07:51:10.591Z,14.43
2023-02-18T07:53:39.208Z,14.42
2023-02-18T07:56:08.653Z,14.41
2023-02-18T07:58:38.722Z,14.41
2023-02-18T08:01:07.620Z,14.41
2023-02-18T08:03:36.073Z,14.41
2023-02-18T08:06:06.125Z,14.41
2023-02-18T08:08:36.621Z,14.54
2023-02-18T08:11:17.136Z,14.53
2023-02-18T08:13:48.581Z,14.50
2023-02-18T08:16:16.518Z,14.48
2023-02-18T08:18:44.660Z,14.48
2023-02-18T08:21:12.292Z,14.46
2023-02-18T08:23:39.984Z,14.46
2023-02-18T08:26:08.469Z,14.45
2023-02-18T08:28:36.455Z,14.45
2023-02-18T08:31:05.561Z,14.43
2023-02-18T08:33:33.778Z,14.44
2023-02-18T08:36:01.406Z,14.44
2023-02-18T08:38:29.004Z,14.44
2023-02-18T08:41:02.943Z,14.47
2023-02-18T08:43:30.589Z,14.47
2023-02-18T08:45:59.191Z,14.46
2023-02-18T08:48:28.733Z,14.48
2023-02-18T08:50:56.435Z,14.45
2023-02-18T08:53:24.329Z,14.46
2023-02-18T08:55:52.074Z,14.47
2023-02-18T08:58:19.682Z,14.47
2023-02-18T09:00:47.340Z,14.48
2023-02-18T09:03:15.787Z,14.47
2023-02-18T09:05:44.772Z,14.47
2023-02-18T09:08:12.369Z,14.47
2023-02-18T09:10:40.432Z,14.46
2023-02-18T09:13:08.069Z,14.46
2023-02-18T09:15:35.717Z,14.46
2023-02-18T09:18:03.351Z,14.46
2023-02-18T09:20:30.943Z,14.47
2023-02-18T09:23:00.764Z,14.46
2023-02-18T09:25:28.460Z,14.46
2023-02-18T09:27:56.081Z,14.46
2023-02-18T09:30:23.831Z,14.45
2023-02-18T09:32:51.407Z,14.45
2023-02-18T09:35:19.072Z,14.46
2023-02-18T09:37:46.667Z,14.47
2023-02-18T09:40:27.126Z,14.47
2023-02-18T09:42:57.032Z,14.48
2023-02-18T09:45:25.493Z,14.46
2023-02-18T09:47:53.195Z,14.47
2023-02-18T09:50:24.944Z,14.47
2023-02-18T09:52:53.417Z,14.47
2023-02-18T09:55:25.292Z,14.46
2023-02-18T09:57:55.271Z,14.46
2023-02-18T10:00:26.426Z,14.46
2023-02-18T10:02:59.367Z,14.47
2023-02-18T10:05:30.221Z,14.46
2023-02-18T10:08:02.984Z,14.47
2023-02-18T10:10:39.982Z,14.47
2023-02-18T10:13:14.949Z,14.50
2023-02-18T10:15:44.446Z,14.51
2023-02-18T10:18:22.683Z,14.51
2023-02-18T10:20:52.668Z,14.52
2023-02-18T10:23:22.080Z,14.52
2023-02-18T10:25:52.674Z,14.52
2023-02-18T10:28:23.693Z,14.52
2023-02-18T10:30:58.364Z,14.53
2023-02-18T10:33:35.229Z,14.52
2023-02-18T10:36:13.837Z,14.54
2023-02-18T10:38:52.391Z,14.52
2023-02-18T10:41:40.752Z,14.53
2023-02-18T10:44:17.757Z,14.54
2023-02-18T10:46:56.150Z,14.53
2023-02-18T10:49:41.909Z,14.54
2023-02-18T10:52:17.249Z,14.53
2023-02-18T10:54:50.922Z,14.53
2023-02-18T10:57:22.130Z,14.52
2023-02-18T10:59:58.875Z,14.52
2023-02-18T11:02:31.425Z,14.52
2023-02-18T11:05:01.756Z,14.52
2023-02-18T11:07:34.657Z,14.50
2023-02-18T11:10:10.579Z,14.51
2023-02-18T11:12:47.158Z,14.51
2023-02-18T11:15:21.845Z,14.50
2023-02-18T11:17:51.402Z,14.51
2023-02-18T11:20:31.341Z,14.50
2023-02-18T11:23:13.769Z,14.49
2023-02-18T11:25:43.384Z,14.50
2023-02-18T11:28:30.827Z,14.50
2023-02-18T11:31:01.523Z,14.51
2023-02-18T11:33:34.840Z,14.49
2023-02-18T11:36:15.293Z,14.50
2023-02-18T11:38:47.926Z,14.50
2023-02-18T11:41:18.503Z,14.51
2023-02-18T11:43:51.118Z,14.49
2023-02-18T11:46:21.022Z,14.50
2023-02-18T11:48:49.417Z,14.51
2023-02-18T11:51:20.278Z,14.52
2023-02-18T11:54:01.143Z,14.54
2023-02-18T11:56:31.523Z,14.56
2023-02-18T11:59:01.716Z,14.58
2023-02-18T12:01:38.085Z,14.59
2023-02-18T12:04:10.117Z,14.60
2023-02-18T12:06:42.723Z,14.60
2023-02-18T12:09:21.832Z,14.61
2023-02-18T12:11:52.880Z,14.64
2023-02-18T12:14:23.963Z,14.64
2023-02-18T12:17:15.568Z,14.66
2023-02-18T12:20:03.962Z,14.67
2023-02-18T12:22:42.605Z,14.68
2023-02-18T12:25:26.874Z,14.68
2023-02-18T12:28:07.974Z,14.68
2023-02-18T12:30:49.397Z,14.68
2023-02-18T12:33:27.640Z,14.68
2023-02-18T12:36:05.295Z,14.69
2023-02-18T12:38:54.507Z,14.66
2023-02-18T12:41:38.363Z,14.67
2023-02-18T12:44:19.418Z,14.67
2023-02-18T12:47:07.580Z,14.66
2023-02-18T12:49:53.466Z,14.64
2023-02-18T12:52:34.325Z,14.65
2023-02-18T12:55:27.616Z,14.64
2023-02-18T12:58:07.279Z,14.65
2023-02-18T13:00:56.096Z,14.63
2023-02-18T13:03:47.121Z,14.63
2023-02-18T13:06:32.772Z,14.64
2023-02-18T13:09:09.727Z,14.61
2023-02-18T13:11:45.058Z,14.61
2023-02-18T13:14:17.209Z,14.61
2023-02-18T13:16:46.956Z,14.61
2023-02-18T13:19:22.534Z,14.61
2023-02-18T13:21:52.721Z,14.63
2023-02-18T13:24:28.912Z,14.59
2023-02-18T13:27:05.475Z,14.61
2023-02-18T13:29:40.751Z,14.60
2023-02-18T13:32:16.955Z,14.61
2023-02-18T13:34:53.314Z,14.62
2023-02-18T13:37:31.896Z,14.61
2023-02-18T13:40:01.676Z,14.63
2023-02-18T13:42:37.978Z,14.62
2023-02-18T13:45:30.179Z,14.61
2023-02-18T13:47:59.386Z,14.62
2023-02-18T13:50:43.761Z,14.61
2023-02-18T13:53:21.180Z,14.62
2023-02-18T13:55:55.740Z,14.61
2023-02-18T13:58:26.871Z,14.63
2023-02-18T14:00:58.503Z,14.62
2023-02-18T14:03:36.085Z,14.61
2023-02-18T14:06:15.285Z,14.62
2023-02-18T14:08:43.352Z,14.62
2023-02-18T14:11:33.420Z,14.60
2023-02-18T14:14:34.663Z,14.61
2023-02-18T14:17:30.357Z,14.61
2023-02-18T14:20:36.423Z,14.61
2023-02-18T14:23:13.405Z,14.61
2023-02-18T14:25:42.746Z,14.60
2023-02-18T14:28:44.854Z,14.60
2023-02-18T14:31:30.541Z,14.60
2023-02-18T14:34:33.094Z,14.60
2023-02-18T14:37:12.480Z,14.60
2023-02-18T14:39:56.079Z,14.60
2023-02-18T14:42:36.927Z,14.60
2023-02-18T14:45:17.102Z,14.61
2023-02-18T14:48:03.999Z,14.61
2023-02-18T14:50:34.585Z,14.60
2023-02-18T14:53:06.907Z,14.61
2023-02-18T14:55:39.984Z,14.60
2023-02-18T14:58:14.520Z,14.60
2023-02-18T15:00:44.422Z,14.60
2023-02-18T15:03:15.775Z,14.60
2023-02-18T15:05:44.169Z,14.61
2023-02-18T15:08:17.450Z,14.62
2023-02-18T15:10:53.723Z,14.61
2023-02-18T15:13:26.750Z,14.60
2023-02-18T15:15:57.324Z,14.61
2023-02-18T15:18:33.327Z,14.60
2023-02-18T15:21:02.447Z,14.62
2023-02-18T15:23:31.733Z,14.63
2023-02-18T15:26:00.699Z,14.63
2023-02-18T15:28:30.766Z,14.62
2023-02-18T15:30:59.424Z,14.63
2023-02-18T15:33:27.574Z,14.62
2023-02-18T15:36:02.036Z,14.64
2023-02-18T15:38:30.250Z,14.62
2023-02-18T15:40:58.012Z,14.64
2023-02-18T15:43:28.067Z,14.62
2023-02-18T15:45:57.877Z,14.62
2023-02-18T15:48:35.803Z,14.64
2023-02-18T15:51:16.425Z,14.62
2023-02-18T15:53:48.903Z,14.62
2023-02-18T15:56:22.364Z,14.61
2023-02-18T15:58:51.417Z,14.62
2023-02-18T16:01:28.143Z,14.62
2023-02-18T16:03:57.005Z,14.62
2023-02-18T16:06:27.180Z,14.61
2023-02-18T16:09:01.142Z,14.61
2023-02-18T16:11:32.308Z,14.61
2023-02-18T16:14:01.552Z,14.61
2023-02-18T16:16:31.092Z,14.61
2023-02-18T16:18:58.677Z,14.60
2023-02-18T16:21:33.630Z,14.61
2023-02-18T16:24:02.942Z,14.60
2023-02-18T16:26:41.520Z,14.61
2023-02-18T16:29:16.343Z,14.61
2023-02-18T16:31:44.206Z,14.62
2023-02-18T16:34:12.269Z,14.62
2023-02-18T16:37:00.272Z,14.62
2023-02-18T16:39:28.698Z,14.62
2023-02-18T16:41:56.281Z,14.61
2023-02-18T16:44:25.243Z,14.62
2023-02-18T16:46:52.906Z,14.61
2023-02-18T16:49:21.330Z,14.61
2023-02-18T16:51:50.263Z,14.62
2023-02-18T16:54:18.243Z,14.62
2023-02-18T16:56:45.870Z,14.62
2023-02-18T16:59:13.544Z,14.64
2023-02-18T17:01:45.987Z,14.64
2023-02-18T17:04:16.352Z,14.65
2023-02-18T17:06:45.143Z,14.66
2023-02-18T17:09:16.935Z,14.66
2023-02-18T17:11:46.329Z,14.66
2023-02-18T17:14:17.830Z,14.66
2023-02-18T17:16:47.611Z,14.67
2023-02-18T17:19:16.025Z,14.67
2023-02-18T17:21:44.125Z,14.66
2023-02-18T17:24:13.027Z,14.65
2023-02-18T17:26:41.120Z,14.65
2023-02-18T17:29:08.796Z,14.65
2023-02-18T17:31:39.150Z,14.65
2023-02-18T17:34:12.282Z,14.64
2023-02-18T17:36:45.288Z,14.64
2023-02-18T17:39:14.260Z,14.65
2023-02-18T17:41:42.421Z,14.64
2023-02-18T17:44:15.351Z,14.65
2023-02-18T17:46:42.977Z,14.64
2023-02-18T17:49:11.980Z,14.63
2023-02-18T17:51:39.695Z,14.63
2023-02-18T17:54:13.414Z,14.63
2023-02-18T17:56:41.223Z,14.64
2023-02-18T17:59:08.948Z,14.64
2023-02-18T18:01:36.883Z,14.63
2023-02-18T18:04:04.809Z,14.63
2023-02-18T18:06:36.043Z,14.62
2023-02-18T18:09:03.671Z,14.62
2023-02-18T18:11:32.852Z,14.61
2023-02-18T18:14:00.461Z,14.61
2023-02-18T18:16:28.407Z,14.62
2023-02-18T18:18:56.108Z,14.62
2023-02-18T18:21:29.001Z,14.62
2023-02-18T18:23:58.025Z,14.62
2023-02-18T18:26:25.714Z,14.61
2023-02-18T18:28:54.760Z,14.62
2023-02-18T18:31:22.569Z,14.63
2023-02-18T18:33:53.165Z,14.61
2023-02-18T18:36:24.023Z,14.61
2023-02-18T18:38:51.886Z,14.61
2023-02-18T18:41:23.252Z,14.63
2023-02-18T18:43:51.113Z,14.63
2023-02-18T18:46:19.198Z,14.64
2023-02-18T18:48:46.875Z,14.64
2023-02-18T18:51:16.916Z,14.64
2023-02-18T18:53:44.770Z,14.63
2023-02-18T18:56:13.454Z,14.64
2023-02-18T18:58:42.505Z,14.64
2023-02-18T19:01:16.623Z,14.65
2023-02-18T19:03:44.869Z,14.64
2023-02-18T19:06:12.660Z,14.65
2023-02-18T19:08:40.416Z,14.64
2023-02-18T19:11:08.356Z,14.64
2023-02-18T19:13:36.612Z,14.65
2023-02-18T19:16:09.272Z,14.65
2023-02-18T19:18:36.929Z,14.65
2023-02-18T19:21:05.229Z,14.64
2023-02-18T19:23:32.958Z,14.66
2023-02-18T19:26:01.155Z,14.64
2023-02-18T19:28:28.950Z,14.66
2023-02-18T19:30:56.668Z,14.64
2023-02-18T19:33:25.640Z,14.66
2023-02-18T19:35:53.219Z,14.67
2023-02-18T19:38:20.868Z,14.66
2023-02-18T19:40:48.855Z,14.69
2023-02-18T19:43:16.775Z,14.69
2023-02-18T19:45:46.044Z,14.69
2023-02-18T19:48:14.445Z,14.69
2023-02-18T19:50:44.366Z,14.69
2023-02-18T19:53:12.277Z,14.68
2023-02-18T19:55:39.966Z,14.70
2023-02-18T19:58:08.115Z,14.69
2023-02-18T20:00:35.796Z,14.69
2023-02-18T20:03:03.461Z,14.69
2023-02-18T20:05:31.107Z,14.69
2023-02-18T20:08:00.072Z,14.70
2023-02-18T20:10:29.202Z,14.69
2023-02-18T20:12:56.870Z,14.70
2023-02-18T20:15:24.556Z,14.70
2023-02-18T20:17:52.226Z,14.70
2023-02-18T20:20:20.449Z,14.69
2023-02-18T20:22:48.150Z,14.70
2023-02-18T20:25:17.316Z,14.70
2023-02-18T20:27:59.777Z,14.70
2023-02-18T20:30:28.411Z,14.72
2023-02-18T20:32:56.054Z,14.72
2023-02-18T20:35:23.737Z,14.71
2023-02-18T20:37:51.383Z,14.72
2023-02-18T20:40:20.476Z,14.72
2023-02-18T20:42:48.108Z,14.72
2023-02-18T20:45:15.914Z,14.72
2023-02-18T20:47:43.509Z,14.72
2023-02-18T20:50:11.340Z,14.72
2023-02-18T20:52:39.754Z,14.72
2023-02-18T20:55:07.448Z,14.73
2023-02-18T20:57:36.467Z,14.72
2023-02-18T21:00:05.599Z,14.72
2023-02-18T21:02:33.257Z,14.71
2023-02-18T21:05:00.899Z,14.71
2023-02-18T21:07:28.531Z,14.72
2023-02-18T21:09:56.166Z,14.72
2023-02-18T21:12:23.832Z,14.71
2023-02-18T21:14:52.778Z,14.70
2023-02-18T21:17:22.045Z,14.71
2023-02-18T21:19:49.637Z,14.71
2023-02-18T21:22:17.217Z,14.72
2023-02-18T21:24:44.847Z,14.72
2023-02-18T21:27:12.479Z,14.71
2023-02-18T21:29:40.103Z,14.71
2023-02-18T21:32:09.207Z,14.71
2023-02-18T21:34:37.018Z,14.71
2023-02-18T21:37:04.594Z,14.71
2023-02-18T21:39:32.214Z,14.70
2023-02-18T21:42:00.153Z,14.70
2023-02-18T21:44:41.258Z,14.70
2023-02-18T21:47:11.868Z,14.69
2023-02-18T21:49:39.626Z,14.71
2023-02-18T21:52:09.428Z,14.69
2023-02-18T21:54:39.198Z,14.70
2023-02-18T21:57:09.354Z,14.70
2023-02-18T21:59:38.408Z,14.69
2023-02-18T22:02:07.758Z,14.69
2023-02-18T22:04:37.581Z,14.70
2023-02-18T22:07:05.222Z,14.70
2023-02-18T22:09:32.877Z,14.70
2023-02-18T22:12:00.541Z,14.70
2023-02-18T22:14:28.203Z,14.70
2023-02-18T22:16:55.862Z,14.71
2023-02-18T22:19:23.701Z,14.71
2023-02-18T22:21:52.914Z,14.71
2023-02-18T22:24:20.859Z,14.70
2023-02-18T22:26:48.985Z,14.71
2023-02-18T22:29:19.400Z,14.71
2023-02-18T22:31:48.065Z,14.71
2023-02-18T22:34:16.034Z,14.69
2023-02-18T22:36:43.872Z,14.69
2023-02-18T22:39:15.187Z,14.70
2023-02-18T22:41:43.378Z,14.71
2023-02-18T22:44:14.093Z,14.70
2023-02-18T22:46:42.329Z,14.70
2023-02-18T22:49:10.179Z,14.69
2023-02-18T22:51:39.481Z,14.70
2023-02-18T22:54:11.006Z,14.69
2023-02-18T22:56:40.190Z,14.68
2023-02-18T22:59:08.119Z,14.69
2023-02-18T23:01:37.890Z,14.70
2023-02-18T23:04:07.440Z,14.68
2023-02-18T23:06:36.485Z,14.69
2023-02-18T23:09:04.537Z,14.69
2023-02-18T23:11:32.164Z,14.69
2023-02-18T23:14:19.452Z,14.69
2023-02-18T23:17:05.548Z,14.69
2023-02-18T23:19:34.621Z,14.69
2023-02-18T23:22:02.226Z,14.68
2023-02-18T23:24:32.019Z,14.69
2023-02-18T23:26:59.674Z,14.69
2023-02-18T23:29:28.647Z,14.69
2023-02-18T23:31:56.352Z,14.69
2023-02-18T23:34:24.110Z,14.69
2023-02-18T23:36:51.725Z,14.69
2023-02-18T23:39:21.432Z,14.69
2023-02-18T23:41:49.917Z,14.69
2023-02-18T23:44:19.530Z,14.68
2023-02-18T23:46:48.981Z,14.67
2023-02-18T23:49:17.970Z,14.67
2023-02-18T23:51:45.628Z,14.69
2023-02-18T23:54:13.270Z,14.69
2023-02-18T23:56:41.316Z,14.68
2023-02-18T23:59:09.245Z,14.68
